Time;durP1;ratioP1;P1;durP2;ratioP2;P2;SDS_P1;SDS_P2;PMS_P1;PMS_P2;Temp;Humidity;BMP_temperature;BMP_pressure;BME280_temperature;BME280_humidity;BME280_pressure;Samples;Min_cycle;Max_cycle;Signal;HPM_P1;HPM_P2
2020/12/11 00:00:46;;;;;;;18.00;11.27;;;;;;;;;;5051635;28;20228;-78
2020/12/11 00:03:14;;;;;;;16.27;10.23;;;;;;;;;;5058079;28;20236;-78
2020/12/11 00:05:42;;;;;;;16.17;10.23;;;;;;;;;;5026192;28;20227;-78
2020/12/11 00:08:09;;;;;;;15.93;10.63;;;;;;;;;;5034799;28;20235;-78
2020/12/11 00:10:37;;;;;;;18.13;11.03;;;;;;;;;;5051171;28;20231;-78
2020/12/11 00:13:06;;;;;;;17.90;11.33;;;;;;;;;;5054238;28;20222;-78
2020/12/11 00:15:33;;;;;;;17.60;11.00;;;;;;;;;;5035281;28;20232;-79
2020/12/11 00:18:01;;;;;;;15.40;9.77;;;;;;;;;;5032654;28;20226;-80
2020/12/11 00:20:29;;;;;;;18.17;11.27;;;;;;;;;;5060459;28;20258;-79
2020/12/11 00:22:57;;;;;;;16.40;10.00;;;;;;;;;;5051028;28;20252;-78
2020/12/11 00:25:25;;;;;;;15.87;10.10;;;;;;;;;;5054935;28;20227;-78
2020/12/11 00:27:52;;;;;;;14.70;9.50;;;;;;;;;;5038774;28;20232;-81
2020/12/11 00:30:22;;;;;;;16.20;10.17;;;;;;;;;;5022396;28;20235;-78
2020/12/11 00:32:49;;;;;;;16.60;10.37;;;;;;;;;;5040277;28;20246;-78
2020/12/11 00:35:17;;;;;;;15.13;10.13;;;;;;;;;;5030448;28;20538;-78
2020/12/11 00:37:44;;;;;;;18.60;11.07;;;;;;;;;;5075237;28;20211;-80
2020/12/11 00:40:12;;;;;;;16.87;10.70;;;;;;;;;;5039951;28;20235;-78
2020/12/11 00:42:39;;;;;;;16.47;11.07;;;;;;;;;;5035322;28;20228;-78
2020/12/11 00:45:07;;;;;;;18.43;11.37;;;;;;;;;;5053180;28;20227;-79
2020/12/11 00:47:37;;;;;;;17.43;10.60;;;;;;;;;;5034118;28;20238;-79
2020/12/11 00:50:05;;;;;;;16.70;10.33;;;;;;;;;;5017118;28;20233;-79
2020/12/11 00:52:33;;;;;;;17.93;11.10;;;;;;;;;;5011672;28;20267;-78
2020/12/11 00:55:01;;;;;;;18.50;10.73;;;;;;;;;;5051705;28;20231;-78
2020/12/11 00:57:28;;;;;;;16.70;11.00;;;;;;;;;;5033126;28;20231;-78
2020/12/11 00:59:56;;;;;;;17.53;11.57;;;;;;;;;;5061618;28;20222;-78
2020/12/11 01:02:24;;;;;;;17.70;10.60;;;;;;;;;;5023603;28;20234;-78
2020/12/11 01:04:54;;;;;;;20.27;11.27;;;;;;;;;;5020305;28;20223;-79
2020/12/11 01:07:22;;;;;;;16.33;9.87;;;;;;;;;;5013417;28;20231;-77
2020/12/11 01:09:50;;;;;;;18.23;11.33;;;;;;;;;;5036732;28;20219;-77
2020/12/11 01:12:18;;;;;;;18.70;10.43;;;;;;;;;;5050825;28;20235;-79
2020/12/11 01:14:45;;;;;;;16.73;10.60;;;;;;;;;;5054290;28;20242;-78
2020/12/11 01:17:13;;;;;;;16.23;10.13;;;;;;;;;;5023147;28;20234;-78
2020/12/11 01:19:41;;;;;;;15.67;10.30;;;;;;;;;;5015671;28;20720;-78
2020/12/11 01:22:09;;;;;;;16.30;10.47;;;;;;;;;;5063027;28;20238;-78
2020/12/11 01:24:38;;;;;;;14.13;10.10;;;;;;;;;;5035977;28;20242;-78
2020/12/11 01:27:05;;;;;;;15.50;10.13;;;;;;;;;;5053012;28;20237;-78
2020/12/11 01:29:33;;;;;;;16.93;10.07;;;;;;;;;;5034236;28;20230;-78
2020/12/11 01:32:01;;;;;;;18.50;11.47;;;;;;;;;;5012980;28;20719;-78
2020/12/11 01:34:28;;;;;;;18.97;11.07;;;;;;;;;;5031581;28;20601;-79
2020/12/11 01:37:02;;;;;;;15.63;10.00;;;;;;;;;;5034864;28;20507;-78
2020/12/11 01:39:30;;;;;;;16.73;10.93;;;;;;;;;;5016835;28;20231;-78
2020/12/11 01:41:58;;;;;;;16.07;10.20;;;;;;;;;;5034228;28;20230;-77
2020/12/11 01:44:27;;;;;;;16.50;10.37;;;;;;;;;;5055545;28;20688;-78
2020/12/11 01:46:56;;;;;;;16.63;9.97;;;;;;;;;;5037267;28;20522;-78
2020/12/11 01:49:24;;;;;;;17.93;10.93;;;;;;;;;;5020652;28;20688;-78
2020/12/11 01:51:52;;;;;;;15.47;10.97;;;;;;;;;;5033196;28;20689;-78
2020/12/11 01:54:20;;;;;;;16.73;10.47;;;;;;;;;;5034794;28;20227;-77
2020/12/11 01:56:52;;;;;;;18.17;11.47;;;;;;;;;;5043562;28;20251;-78
2020/12/11 01:59:33;;;;;;;16.60;10.27;;;;;;;;;;5076851;28;20233;-77
2020/12/11 02:02:03;;;;;;;16.93;10.33;;;;;;;;;;5034028;28;20724;-79
2020/12/11 02:04:34;;;;;;;15.47;9.77;;;;;;;;;;5046145;28;20227;-79
2020/12/11 02:07:04;;;;;;;16.73;9.47;;;;;;;;;;5070191;28;20223;-79
2020/12/11 02:09:34;;;;;;;15.93;9.77;;;;;;;;;;5032498;28;20296;-78
2020/12/11 02:12:03;;;;;;;15.67;10.90;;;;;;;;;;5016582;28;20243;-77
2020/12/11 02:14:31;;;;;;;15.43;10.07;;;;;;;;;;5033792;28;20758;-79
2020/12/11 02:17:00;;;;;;;18.07;10.23;;;;;;;;;;5011629;28;20223;-77
2020/12/11 02:19:30;;;;;;;18.70;9.50;;;;;;;;;;5048443;28;20231;-79
2020/12/11 02:21:59;;;;;;;15.30;10.10;;;;;;;;;;5018613;28;20306;-79
2020/12/11 02:24:27;;;;;;;14.20;10.13;;;;;;;;;;5030146;28;20231;-77
2020/12/11 02:26:55;;;;;;;16.67;10.80;;;;;;;;;;5049004;28;20577;-78
2020/12/11 02:29:24;;;;;;;16.07;9.83;;;;;;;;;;5030784;28;20239;-78
2020/12/11 02:31:52;;;;;;;16.90;10.30;;;;;;;;;;5016534;28;20235;-78
2020/12/11 02:34:21;;;;;;;15.27;9.87;;;;;;;;;;5063170;28;20292;-78
2020/12/11 02:36:49;;;;;;;15.93;9.97;;;;;;;;;;5063342;28;20253;-79
2020/12/11 02:39:18;;;;;;;16.47;10.10;;;;;;;;;;5028677;28;20233;-79
2020/12/11 02:41:47;;;;;;;16.40;10.70;;;;;;;;;;5027636;28;20261;-79
2020/12/11 02:44:15;;;;;;;15.77;9.60;;;;;;;;;;5046235;28;20230;-79
2020/12/11 02:46:43;;;;;;;15.33;9.83;;;;;;;;;;5042141;28;20230;-78
2020/12/11 02:49:11;;;;;;;16.50;10.00;;;;;;;;;;5053001;28;20241;-78
2020/12/11 02:51:38;;;;;;;15.27;10.27;;;;;;;;;;5020915;28;20570;-77
2020/12/11 02:54:06;;;;;;;14.73;10.27;;;;;;;;;;5045362;28;20211;-78
2020/12/11 02:56:35;;;;;;;13.40;9.50;;;;;;;;;;5031879;28;20736;-78
2020/12/11 02:59:03;;;;;;;13.80;9.40;;;;;;;;;;5029468;28;20231;-77
2020/12/11 03:01:30;;;;;;;14.43;9.07;;;;;;;;;;5038756;28;20227;-78
2020/12/11 03:03:58;;;;;;;15.50;10.17;;;;;;;;;;5055877;28;20235;-78
2020/12/11 03:06:28;;;;;;;16.57;9.97;;;;;;;;;;5053069;28;20850;-78
2020/12/11 03:08:56;;;;;;;12.93;9.07;;;;;;;;;;5033663;28;20227;-78
2020/12/11 03:11:24;;;;;;;14.07;9.07;;;;;;;;;;5044298;28;20231;-78
2020/12/11 03:13:53;;;;;;;14.43;9.43;;;;;;;;;;5050457;28;20231;-78
2020/12/11 03:16:21;;;;;;;13.00;8.37;;;;;;;;;;5046940;28;20228;-77
2020/12/11 03:18:50;;;;;;;16.07;9.57;;;;;;;;;;5048564;28;20719;-79
2020/12/11 03:21:18;;;;;;;16.30;10.33;;;;;;;;;;5051379;28;20231;-78
2020/12/11 03:23:45;;;;;;;15.40;10.17;;;;;;;;;;5033425;28;20219;-78
2020/12/11 03:26:13;;;;;;;15.77;9.40;;;;;;;;;;5032999;28;20226;-79
2020/12/11 03:28:41;;;;;;;14.07;9.10;;;;;;;;;;5036331;28;20254;-79
2020/12/11 03:31:09;;;;;;;15.93;9.90;;;;;;;;;;5023549;28;20235;-79
2020/12/11 03:33:37;;;;;;;15.60;9.20;;;;;;;;;;5014693;28;20237;-78
2020/12/11 03:36:04;;;;;;;14.43;9.53;;;;;;;;;;5034419;28;20241;-78
2020/12/11 03:38:32;;;;;;;14.37;9.20;;;;;;;;;;5062723;28;20604;-79
2020/12/11 03:41:00;;;;;;;16.07;10.10;;;;;;;;;;5057739;28;20238;-78
2020/12/11 03:43:27;;;;;;;16.67;10.20;;;;;;;;;;5041606;28;20230;-79
2020/12/11 03:45:55;;;;;;;14.13;9.27;;;;;;;;;;5054949;28;20230;-78
2020/12/11 03:48:24;;;;;;;16.53;10.00;;;;;;;;;;5033579;28;20228;-78
2020/12/11 03:50:52;;;;;;;14.50;9.73;;;;;;;;;;5033591;28;20233;-78
2020/12/11 03:53:20;;;;;;;13.97;9.10;;;;;;;;;;5054511;28;21065;-79
2020/12/11 03:55:47;;;;;;;17.10;10.53;;;;;;;;;;5039928;28;20216;-78
2020/12/11 03:58:15;;;;;;;15.53;9.77;;;;;;;;;;5037045;28;20242;-76
2020/12/11 04:00:43;;;;;;;14.93;9.00;;;;;;;;;;5030620;28;20246;-78
2020/12/11 04:03:10;;;;;;;16.47;10.83;;;;;;;;;;5035962;28;20219;-77
2020/12/11 04:05:39;;;;;;;16.33;10.43;;;;;;;;;;5032950;28;20705;-76
2020/12/11 04:08:06;;;;;;;14.57;9.83;;;;;;;;;;5021810;28;20230;-77
2020/12/11 04:10:34;;;;;;;14.97;9.57;;;;;;;;;;5058658;28;20230;-78
2020/12/11 04:13:01;;;;;;;15.10;9.67;;;;;;;;;;5035628;28;20235;-77
2020/12/11 04:15:29;;;;;;;14.77;9.97;;;;;;;;;;5053884;28;20220;-78
2020/12/11 04:17:57;;;;;;;14.73;9.47;;;;;;;;;;5038623;28;20632;-78
2020/12/11 04:20:24;;;;;;;14.03;9.47;;;;;;;;;;5034117;28;20242;-78
2020/12/11 04:22:53;;;;;;;16.63;10.13;;;;;;;;;;5017611;28;20232;-78
2020/12/11 04:25:20;;;;;;;18.40;10.37;;;;;;;;;;5054765;28;20238;-77
2020/12/11 04:27:49;;;;;;;15.13;9.73;;;;;;;;;;5035723;28;20238;-78
2020/12/11 04:30:16;;;;;;;14.43;9.00;;;;;;;;;;5041745;28;20231;-77
2020/12/11 04:32:44;;;;;;;15.83;9.30;;;;;;;;;;5031622;28;20231;-78
2020/12/11 04:35:11;;;;;;;16.13;9.97;;;;;;;;;;5019898;28;20227;-78
2020/12/11 04:37:39;;;;;;;13.13;8.87;;;;;;;;;;5033570;28;20236;-78
2020/12/11 04:40:07;;;;;;;17.63;11.00;;;;;;;;;;5034422;28;20626;-79
2020/12/11 04:42:35;;;;;;;16.17;11.13;;;;;;;;;;5036349;28;20238;-78
2020/12/11 04:45:03;;;;;;;15.60;10.50;;;;;;;;;;5037804;28;20227;-79
2020/12/11 04:47:31;;;;;;;20.27;11.20;;;;;;;;;;5049095;28;20218;-77
2020/12/11 04:49:59;;;;;;;18.83;11.43;;;;;;;;;;5051298;28;20241;-78
2020/12/11 04:52:28;;;;;;;16.93;11.43;;;;;;;;;;5016674;28;20228;-78
2020/12/11 04:54:59;;;;;;;17.23;11.07;;;;;;;;;;5050742;28;20230;-78
2020/12/11 04:57:31;;;;;;;17.97;11.20;;;;;;;;;;5017489;28;20531;-78
2020/12/11 04:59:59;;;;;;;16.37;10.50;;;;;;;;;;5065154;28;20749;-77
2020/12/11 05:02:28;;;;;;;17.17;10.77;;;;;;;;;;5014185;28;20235;-78
2020/12/11 05:04:58;;;;;;;18.30;11.37;;;;;;;;;;5027064;28;20238;-78
2020/12/11 05:07:28;;;;;;;17.03;10.73;;;;;;;;;;5052714;28;20231;-78
2020/12/11 05:09:56;;;;;;;17.57;10.87;;;;;;;;;;5023292;28;20219;-78
2020/12/11 05:12:24;;;;;;;17.70;10.80;;;;;;;;;;5051218;28;20238;-78
2020/12/11 05:14:56;;;;;;;15.90;10.37;;;;;;;;;;5030702;28;20226;-77
2020/12/11 05:17:28;;;;;;;18.20;11.47;;;;;;;;;;5055551;28;20242;-79
2020/12/11 05:19:57;;;;;;;16.20;9.87;;;;;;;;;;5053549;28;20591;-78
2020/12/11 05:22:26;;;;;;;18.03;10.60;;;;;;;;;;5067611;28;20229;-79
2020/12/11 05:24:56;;;;;;;18.13;12.07;;;;;;;;;;5037015;28;20496;-79
2020/12/11 05:27:29;;;;;;;19.03;10.80;;;;;;;;;;5069111;28;20207;-78
2020/12/11 05:29:58;;;;;;;18.37;11.20;;;;;;;;;;5040619;28;20241;-80
2020/12/11 05:32:36;;;;;;;16.40;10.37;;;;;;;;;;5049090;28;20227;-79
2020/12/11 05:35:05;;;;;;;16.90;10.37;;;;;;;;;;5034619;28;20300;-77
2020/12/11 05:37:45;;;;;;;18.40;11.33;;;;;;;;;;5041182;28;20374;-78
2020/12/11 05:40:17;;;;;;;17.40;10.70;;;;;;;;;;5052009;28;20230;-79
2020/12/11 05:43:10;;;;;;;16.63;10.63;;;;;;;;;;5048328;28;20241;-79
2020/12/11 05:45:39;;;;;;;18.87;10.90;;;;;;;;;;5033526;28;20238;-78
2020/12/11 05:48:07;;;;;;;16.53;10.80;;;;;;;;;;5032919;28;20227;-79
2020/12/11 05:50:35;;;;;;;18.77;11.03;;;;;;;;;;5046505;28;20223;-78
2020/12/11 05:53:02;;;;;;;18.87;11.67;;;;;;;;;;5012233;28;20239;-79
2020/12/11 05:55:30;;;;;;;18.80;11.30;;;;;;;;;;5028701;28;20230;-79
2020/12/11 05:57:59;;;;;;;19.97;10.83;;;;;;;;;;5015718;28;20223;-79
2020/12/11 06:00:27;;;;;;;17.67;11.00;;;;;;;;;;5035492;28;20617;-78
2020/12/11 06:02:55;;;;;;;19.30;10.73;;;;;;;;;;5029222;28;20234;-78
2020/12/11 06:05:24;;;;;;;18.40;11.37;;;;;;;;;;5013591;28;20234;-77
2020/12/11 06:07:52;;;;;;;21.17;12.17;;;;;;;;;;5054297;28;20231;-78
2020/12/11 06:10:23;;;;;;;18.57;11.57;;;;;;;;;;5015474;28;20324;-78
2020/12/11 06:12:51;;;;;;;18.50;11.53;;;;;;;;;;5012136;28;20993;-78
2020/12/11 06:15:26;;;;;;;18.20;11.07;;;;;;;;;;5037008;28;20235;-79
2020/12/11 06:17:58;;;;;;;18.50;11.07;;;;;;;;;;5025590;28;20227;-78
2020/12/11 06:20:27;;;;;;;20.27;11.40;;;;;;;;;;5051694;28;20721;-79
2020/12/11 06:23:19;;;;;;;18.60;10.90;;;;;;;;;;5006003;28;20230;-79
2020/12/11 06:25:53;;;;;;;20.50;11.20;;;;;;;;;;5035768;28;20202;-79
2020/12/11 06:28:40;;;;;;;19.00;11.47;;;;;;;;;;5067056;28;20225;-79
2020/12/11 06:31:09;;;;;;;16.40;10.30;;;;;;;;;;5079145;28;20234;-79
2020/12/11 06:33:38;;;;;;;17.53;10.87;;;;;;;;;;5052751;28;20218;-79
2020/12/11 06:36:06;;;;;;;19.03;11.23;;;;;;;;;;5032740;28;20230;-79
2020/12/11 06:38:42;;;;;;;18.33;10.67;;;;;;;;;;5028728;28;20235;-79
2020/12/11 06:41:11;;;;;;;14.23;9.27;;;;;;;;;;5042561;28;20256;-79
2020/12/11 06:43:40;;;;;;;18.83;10.63;;;;;;;;;;5011985;28;20220;-79
2020/12/11 06:46:11;;;;;;;17.80;10.70;;;;;;;;;;5020605;28;20592;-79
2020/12/11 06:49:10;;;;;;;18.70;10.87;;;;;;;;;;5025788;28;20228;-79
2020/12/11 06:52:14;;;;;;;18.30;11.10;;;;;;;;;;5031391;28;20241;-79
2020/12/11 06:54:55;;;;;;;18.73;11.23;;;;;;;;;;5038655;28;20238;-79
2020/12/11 06:57:36;;;;;;;16.73;10.00;;;;;;;;;;5016631;28;20226;-79
2020/12/11 07:00:23;;;;;;;19.80;11.60;;;;;;;;;;5048497;28;20239;-79
2020/12/11 07:03:19;;;;;;;16.33;10.10;;;;;;;;;;5006433;28;20230;-79
2020/12/11 07:06:06;;;;;;;17.13;10.17;;;;;;;;;;5022562;28;20219;-80
2020/12/11 07:08:34;;;;;;;17.70;10.77;;;;;;;;;;5051452;28;20225;-79
2020/12/11 07:11:10;;;;;;;18.03;10.63;;;;;;;;;;5041128;28;20218;-80
2020/12/11 07:13:46;;;;;;;22.57;12.33;;;;;;;;;;5044245;28;20228;-80
2020/12/11 07:16:14;;;;;;;19.07;11.30;;;;;;;;;;5009001;28;20238;-79
2020/12/11 07:18:43;;;;;;;19.90;11.70;;;;;;;;;;5030957;28;20228;-79
2020/12/11 07:21:12;;;;;;;17.83;9.87;;;;;;;;;;5026153;28;20234;-79
2020/12/11 07:23:40;;;;;;;17.40;10.20;;;;;;;;;;5011776;28;20215;-79
2020/12/11 07:26:08;;;;;;;17.43;10.27;;;;;;;;;;5008267;28;20231;-79
2020/12/11 07:28:36;;;;;;;17.43;10.33;;;;;;;;;;5024614;28;20603;-79
2020/12/11 07:31:04;;;;;;;17.37;9.90;;;;;;;;;;5042708;28;20223;-78
2020/12/11 07:33:33;;;;;;;19.03;10.37;;;;;;;;;;5016729;28;20708;-79
2020/12/11 07:36:02;;;;;;;17.03;10.13;;;;;;;;;;5037004;28;20234;-79
2020/12/11 07:38:31;;;;;;;17.17;10.50;;;;;;;;;;5016686;28;20593;-78
2020/12/11 07:41:02;;;;;;;15.93;9.57;;;;;;;;;;5016962;28;20222;-78
2020/12/11 07:43:30;;;;;;;15.77;9.83;;;;;;;;;;5050692;28;20230;-78
2020/12/11 07:45:58;;;;;;;17.33;9.80;;;;;;;;;;5042717;28;20924;-79
2020/12/11 07:48:25;;;;;;;15.70;9.93;;;;;;;;;;5034175;28;20231;-78
2020/12/11 07:51:00;;;;;;;15.77;10.00;;;;;;;;;;5064822;28;20247;-78
2020/12/11 07:53:28;;;;;;;16.43;9.47;;;;;;;;;;5008505;28;20708;-79
2020/12/11 07:55:56;;;;;;;14.37;9.00;;;;;;;;;;5063035;28;20232;-78
2020/12/11 07:58:24;;;;;;;15.43;9.63;;;;;;;;;;5037088;28;20226;-78
2020/12/11 08:00:52;;;;;;;12.87;8.30;;;;;;;;;;5037179;28;20227;-78
2020/12/11 08:03:20;;;;;;;15.40;10.00;;;;;;;;;;5024413;28;20231;-78
2020/12/11 08:05:47;;;;;;;15.20;9.30;;;;;;;;;;5014521;28;20219;-78
2020/12/11 08:08:15;;;;;;;15.97;9.53;;;;;;;;;;5048050;28;20242;-78
2020/12/11 08:10:43;;;;;;;16.87;10.00;;;;;;;;;;5034407;28;20227;-78
2020/12/11 08:13:17;;;;;;;13.53;8.73;;;;;;;;;;5028972;28;20231;-79
2020/12/11 08:15:45;;;;;;;13.43;9.20;;;;;;;;;;5012381;28;20232;-79
2020/12/11 08:18:22;;;;;;;18.30;9.83;;;;;;;;;;5058498;28;20238;-77
2020/12/11 08:20:54;;;;;;;15.43;8.87;;;;;;;;;;5037722;28;20299;-77
2020/12/11 08:23:34;;;;;;;14.40;9.10;;;;;;;;;;5057349;28;20222;-79
2020/12/11 08:26:23;;;;;;;13.43;8.63;;;;;;;;;;5061104;28;20236;-78
2020/12/11 08:29:03;;;;;;;14.30;8.87;;;;;;;;;;5024255;28;20238;-78
2020/12/11 08:31:38;;;;;;;14.40;9.37;;;;;;;;;;5061032;28;20774;-78
2020/12/11 08:34:08;;;;;;;15.70;9.53;;;;;;;;;;5016418;28;20225;-77
2020/12/11 08:36:40;;;;;;;16.03;9.60;;;;;;;;;;5048338;28;20212;-78
2020/12/11 08:39:19;;;;;;;15.10;8.97;;;;;;;;;;5016601;28;20235;-78
2020/12/11 08:42:06;;;;;;;14.13;9.17;;;;;;;;;;5027063;28;20242;-78
2020/12/11 08:44:57;;;;;;;14.10;8.60;;;;;;;;;;5022088;28;20227;-78
2020/12/11 08:47:36;;;;;;;15.63;9.53;;;;;;;;;;5010732;28;20225;-78
2020/12/11 08:50:10;;;;;;;16.47;9.17;;;;;;;;;;5048665;28;20231;-78
2020/12/11 08:52:38;;;;;;;17.00;10.33;;;;;;;;;;5016561;28;20716;-78
2020/12/11 08:55:06;;;;;;;16.93;10.00;;;;;;;;;;5027231;28;20726;-78
2020/12/11 08:57:35;;;;;;;13.97;8.73;;;;;;;;;;5048168;28;20215;-78
2020/12/11 09:00:04;;;;;;;13.77;8.57;;;;;;;;;;5030568;28;20610;-78
2020/12/11 09:02:32;;;;;;;14.63;9.47;;;;;;;;;;5046315;28;20224;-78
2020/12/11 09:05:00;;;;;;;17.23;10.33;;;;;;;;;;5065767;28;20219;-78
2020/12/11 09:07:37;;;;;;;13.43;8.20;;;;;;;;;;5054538;28;20203;-79
2020/12/11 09:10:05;;;;;;;14.73;9.17;;;;;;;;;;5061915;28;20609;-79
2020/12/11 09:12:35;;;;;;;15.90;9.77;;;;;;;;;;5034715;28;20231;-79
2020/12/11 09:15:07;;;;;;;14.33;9.67;;;;;;;;;;5031638;28;20227;-79
2020/12/11 09:17:35;;;;;;;17.93;12.13;;;;;;;;;;5046898;28;20224;-78
2020/12/11 09:20:03;;;;;;;16.17;11.23;;;;;;;;;;5050015;28;20231;-79
2020/12/11 09:22:31;;;;;;;17.93;11.23;;;;;;;;;;5032736;28;20227;-79
2020/12/11 09:24:59;;;;;;;20.10;11.47;;;;;;;;;;5028922;28;20207;-79
2020/12/11 09:27:27;;;;;;;17.17;10.87;;;;;;;;;;5033014;28;20216;-80
2020/12/11 09:30:00;;;;;;;18.50;11.87;;;;;;;;;;5060552;28;20215;-79
2020/12/11 09:32:36;;;;;;;19.03;11.60;;;;;;;;;;5045533;28;20223;-78
2020/12/11 09:35:04;;;;;;;18.30;10.87;;;;;;;;;;5049032;28;20609;-78
2020/12/11 09:37:31;;;;;;;17.57;11.10;;;;;;;;;;5028640;28;20447;-79
2020/12/11 09:39:59;;;;;;;17.27;11.00;;;;;;;;;;5061436;28;20231;-79
2020/12/11 09:42:48;;;;;;;16.63;11.80;;;;;;;;;;5014130;28;20239;-79
2020/12/11 09:45:25;;;;;;;17.20;11.53;;;;;;;;;;5012789;28;20232;-79
2020/12/11 09:48:06;;;;;;;17.80;11.10;;;;;;;;;;5028625;28;20232;-79
2020/12/11 09:53:31;;;;;;;19.53;11.30;;;;;;;;;;5038063;28;20227;-78
2020/12/11 09:56:02;;;;;;;19.00;12.10;;;;;;;;;;5038086;28;20287;-79
2020/12/11 09:58:32;;;;;;;20.57;11.47;;;;;;;;;;5008293;28;20228;-79
2020/12/11 10:01:01;;;;;;;18.93;11.53;;;;;;;;;;5042971;28;20223;-79
2020/12/11 10:03:34;;;;;;;17.87;11.13;;;;;;;;;;5020345;28;20232;-79
2020/12/11 10:06:05;;;;;;;17.23;11.23;;;;;;;;;;5008778;28;20223;-79
2020/12/11 10:08:33;;;;;;;20.00;11.90;;;;;;;;;;5045269;28;20220;-79
2020/12/11 10:11:01;;;;;;;19.30;11.73;;;;;;;;;;5028146;28;20231;-79
2020/12/11 10:13:29;;;;;;;18.23;11.50;;;;;;;;;;5021645;28;20220;-79
2020/12/11 10:15:58;;;;;;;18.27;11.53;;;;;;;;;;5064988;28;20600;-80
2020/12/11 10:18:26;;;;;;;21.00;12.50;;;;;;;;;;5037629;28;20231;-78
2020/12/11 10:20:55;;;;;;;22.27;12.70;;;;;;;;;;5031664;28;20227;-80
2020/12/11 10:23:28;;;;;;;19.90;11.30;;;;;;;;;;5050176;28;20227;-79
2020/12/11 10:25:56;;;;;;;19.60;11.67;;;;;;;;;;5008878;28;20227;-79
2020/12/11 10:28:24;;;;;;;20.50;11.77;;;;;;;;;;5027914;28;20219;-79
2020/12/11 10:30:51;;;;;;;19.77;11.07;;;;;;;;;;5025287;28;20613;-78
2020/12/11 10:33:19;;;;;;;21.17;12.60;;;;;;;;;;5003481;28;20227;-78
2020/12/11 10:35:47;;;;;;;18.20;11.27;;;;;;;;;;5026417;28;20458;-78
2020/12/11 10:38:15;;;;;;;17.27;11.37;;;;;;;;;;5062460;28;20605;-78
2020/12/11 10:40:43;;;;;;;19.33;11.77;;;;;;;;;;5022579;28;20801;-78
2020/12/11 10:43:10;;;;;;;18.73;11.97;;;;;;;;;;5022443;28;20227;-79
2020/12/11 10:45:38;;;;;;;18.77;11.47;;;;;;;;;;5009931;28;20223;-79
2020/12/11 10:48:06;;;;;;;19.47;11.97;;;;;;;;;;5024340;28;20231;-79
2020/12/11 10:50:34;;;;;;;19.03;11.67;;;;;;;;;;5041812;28;20230;-79
2020/12/11 10:53:02;;;;;;;20.37;11.27;;;;;;;;;;5034852;28;20227;-78
2020/12/11 10:55:30;;;;;;;20.17;11.80;;;;;;;;;;5045763;28;20231;-79
2020/12/11 10:57:58;;;;;;;19.17;10.87;;;;;;;;;;5028193;28;20242;-79
2020/12/11 11:00:25;;;;;;;17.43;11.23;;;;;;;;;;5023220;28;20227;-79
2020/12/11 11:02:53;;;;;;;18.40;10.43;;;;;;;;;;5039747;28;20650;-79
2020/12/11 11:05:20;;;;;;;21.90;12.23;;;;;;;;;;5012332;28;20238;-78
2020/12/11 11:07:48;;;;;;;18.60;9.97;;;;;;;;;;5031817;28;20227;-79
2020/12/11 11:10:22;;;;;;;18.07;10.40;;;;;;;;;;5042196;28;20235;-79
2020/12/11 11:12:55;;;;;;;22.03;10.97;;;;;;;;;;5038218;28;20251;-79
2020/12/11 11:15:36;;;;;;;18.13;10.40;;;;;;;;;;5038904;28;20223;-79
2020/12/11 11:18:20;;;;;;;21.27;11.63;;;;;;;;;;5008903;28;20223;-79
2020/12/11 11:26:46;;;;;;;17.97;9.93;;;;;;;;;;5048414;28;20227;-79
2020/12/11 11:29:14;;;;;;;19.10;11.33;;;;;;;;;;5029776;28;20223;-79
2020/12/11 11:31:46;;;;;;;20.67;11.43;;;;;;;;;;5042455;28;20242;-79
2020/12/11 11:34:13;;;;;;;20.93;11.00;;;;;;;;;;5007769;28;20814;-79
2020/12/11 11:36:41;;;;;;;19.93;11.20;;;;;;;;;;5050134;28;20219;-78
2020/12/11 11:39:08;;;;;;;21.23;11.27;;;;;;;;;;5016460;28;20574;-80
2020/12/11 11:41:46;;;;;;;20.83;12.10;;;;;;;;;;5031663;28;20245;-79
2020/12/11 11:46:58;;;;;;;21.17;11.87;;;;;;;;;;5026101;28;20227;-79
2020/12/11 11:49:30;;;;;;;22.40;12.73;;;;;;;;;;5028893;28;20708;-79
2020/12/11 11:52:07;;;;;;;20.77;11.77;;;;;;;;;;5027535;28;20226;-79
2020/12/11 11:54:35;;;;;;;20.67;11.23;;;;;;;;;;5012606;28;20246;-79
2020/12/11 11:57:02;;;;;;;22.00;12.07;;;;;;;;;;5020666;28;20238;-79
2020/12/11 11:59:31;;;;;;;19.90;11.20;;;;;;;;;;5028027;28;20224;-79
2020/12/11 12:01:58;;;;;;;19.17;11.33;;;;;;;;;;5024010;28;20240;-79
2020/12/11 12:04:26;;;;;;;20.17;12.77;;;;;;;;;;5034069;28;20238;-79
2020/12/11 12:06:54;;;;;;;20.50;11.83;;;;;;;;;;5031199;28;20235;-79
2020/12/11 12:09:21;;;;;;;26.27;12.83;;;;;;;;;;5021355;28;20250;-79
2020/12/11 12:11:49;;;;;;;19.53;10.97;;;;;;;;;;5022282;28;20713;-78
2020/12/11 12:14:16;;;;;;;21.80;11.43;;;;;;;;;;5001181;28;20216;-79
2020/12/11 12:16:46;;;;;;;20.30;11.07;;;;;;;;;;5031733;28;20234;-79
2020/12/11 12:19:16;;;;;;;20.27;11.33;;;;;;;;;;5011817;28;20720;-79
2020/12/11 12:22:18;;;;;;;20.60;11.10;;;;;;;;;;5021663;28;20232;-79
2020/12/11 12:28:12;;;;;;;22.37;11.73;;;;;;;;;;5066620;28;20195;-79
2020/12/11 12:30:39;;;;;;;19.83;9.63;;;;;;;;;;5028431;28;20239;-79
2020/12/11 12:33:51;;;;;;;19.30;9.70;;;;;;;;;;5031704;28;20223;-79
2020/12/11 12:36:42;;;;;;;20.27;10.23;;;;;;;;;;5042826;28;20234;-79
2020/12/11 12:39:29;;;;;;;18.30;10.80;;;;;;;;;;5050440;28;20233;-79
2020/12/11 12:44:53;;;;;;;25.27;11.57;;;;;;;;;;5008180;28;20360;-79
2020/12/11 12:47:21;;;;;;;22.40;12.27;;;;;;;;;;5032287;28;20238;-79
2020/12/11 12:49:51;;;;;;;20.60;10.63;;;;;;;;;;5022404;28;20230;-80
2020/12/11 12:52:18;;;;;;;21.33;11.83;;;;;;;;;;5027387;28;20236;-80
2020/12/11 12:54:46;;;;;;;21.60;11.80;;;;;;;;;;5063884;28;20220;-81
2020/12/11 12:57:17;;;;;;;21.47;11.47;;;;;;;;;;5062902;28;20462;-79
2020/12/11 12:59:50;;;;;;;22.00;11.97;;;;;;;;;;5034997;28;20238;-79
2020/12/11 13:02:42;;;;;;;21.63;11.87;;;;;;;;;;5029651;28;20230;-79
2020/12/11 13:05:11;;;;;;;19.87;11.63;;;;;;;;;;5044378;28;20304;-79
2020/12/11 13:07:39;;;;;;;21.47;10.97;;;;;;;;;;5027883;28;20223;-80
2020/12/11 13:10:07;;;;;;;21.20;11.40;;;;;;;;;;5046775;28;20250;-79
2020/12/11 13:12:35;;;;;;;21.43;11.90;;;;;;;;;;5009097;28;20219;-79
2020/12/11 13:15:03;;;;;;;19.10;11.40;;;;;;;;;;5011732;28;20227;-79
2020/12/11 13:17:32;;;;;;;21.77;10.30;;;;;;;;;;5060859;28;20581;-79
2020/12/11 13:20:01;;;;;;;18.80;11.43;;;;;;;;;;5032697;28;20222;-79
2020/12/11 13:22:42;;;;;;;21.90;11.37;;;;;;;;;;5025118;28;20422;-79
2020/12/11 13:25:41;;;;;;;20.67;10.80;;;;;;;;;;5012945;28;20228;-78
2020/12/11 13:28:08;;;;;;;24.27;11.40;;;;;;;;;;5014201;28;20250;-79
2020/12/11 13:30:36;;;;;;;20.63;11.03;;;;;;;;;;5008640;28;20239;-79
2020/12/11 13:33:04;;;;;;;18.43;10.60;;;;;;;;;;5038338;28;20231;-79
2020/12/11 13:35:31;;;;;;;19.80;10.93;;;;;;;;;;5041802;28;20262;-80
2020/12/11 13:37:59;;;;;;;21.93;10.97;;;;;;;;;;5029158;28;20228;-79
2020/12/11 13:40:27;;;;;;;19.10;9.93;;;;;;;;;;5035835;28;20227;-79
2020/12/11 13:42:55;;;;;;;20.90;11.00;;;;;;;;;;5022540;28;20231;-79
2020/12/11 13:45:23;;;;;;;20.33;11.20;;;;;;;;;;5012155;28;20228;-79
2020/12/11 13:47:51;;;;;;;19.37;10.93;;;;;;;;;;5000334;28;20228;-80
2020/12/11 13:50:18;;;;;;;23.03;11.67;;;;;;;;;;5030981;28;20231;-79
2020/12/11 13:52:46;;;;;;;17.07;9.73;;;;;;;;;;5009235;28;20597;-80
2020/12/11 13:55:14;;;;;;;18.30;9.87;;;;;;;;;;5036287;28;20476;-79
2020/12/11 13:57:42;;;;;;;18.10;9.67;;;;;;;;;;5030460;28;20224;-78
2020/12/11 14:00:10;;;;;;;19.47;10.60;;;;;;;;;;5075397;28;20219;-78
2020/12/11 14:02:37;;;;;;;21.47;10.67;;;;;;;;;;5051528;28;20219;-78
2020/12/11 14:05:05;;;;;;;16.57;10.10;;;;;;;;;;5066532;28;20215;-78
2020/12/11 14:07:32;;;;;;;22.90;11.07;;;;;;;;;;5045819;28;20211;-78
2020/12/11 14:10:00;;;;;;;16.43;9.70;;;;;;;;;;5053644;28;20220;-79
2020/12/11 14:12:28;;;;;;;17.83;10.27;;;;;;;;;;5022762;28;20712;-78
2020/12/11 14:14:56;;;;;;;21.67;10.43;;;;;;;;;;5039311;28;20254;-78
2020/12/11 14:17:34;;;;;;;17.87;10.33;;;;;;;;;;5033159;28;20224;-79
2020/12/11 14:22:52;;;;;;;22.97;10.47;;;;;;;;;;5029437;28;20231;-78
2020/12/11 14:25:19;;;;;;;18.10;10.73;;;;;;;;;;5033980;28;20227;-78
2020/12/11 14:27:48;;;;;;;17.40;9.50;;;;;;;;;;5037623;28;20220;-78
2020/12/11 14:30:15;;;;;;;13.57;7.70;;;;;;;;;;5025116;28;20223;-78
2020/12/11 14:32:43;;;;;;;14.87;8.33;;;;;;;;;;5023846;28;20231;-78
2020/12/11 14:35:11;;;;;;;13.67;7.37;;;;;;;;;;5023882;28;20250;-78
2020/12/11 14:37:41;;;;;;;13.70;7.63;;;;;;;;;;5054946;28;20322;-78
2020/12/11 14:40:08;;;;;;;12.60;7.63;;;;;;;;;;5034544;28;20262;-79
2020/12/11 14:42:36;;;;;;;12.73;7.80;;;;;;;;;;5036204;28;20402;-78
2020/12/11 14:45:04;;;;;;;13.93;8.00;;;;;;;;;;5052325;28;21257;-78
2020/12/11 14:47:32;;;;;;;11.73;6.73;;;;;;;;;;5026982;28;20725;-79
2020/12/11 14:49:59;;;;;;;13.80;7.87;;;;;;;;;;5019572;28;20226;-79
2020/12/11 14:52:28;;;;;;;14.37;7.20;;;;;;;;;;5035002;28;20688;-78
2020/12/11 14:54:55;;;;;;;12.77;7.40;;;;;;;;;;5037738;28;20231;-79
2020/12/11 14:57:23;;;;;;;13.37;7.57;;;;;;;;;;5035043;28;20224;-78
2020/12/11 14:59:52;;;;;;;16.10;7.67;;;;;;;;;;5017356;28;20216;-77